עמוד ראשי
METAR-TAF:

METAR-TAF

שדות תעופה :

Tingo María, פרו

קו רוחב: 09-17-15S, קו אורך: 076-00-18W, גובה: 654מטר

תצפית מזג אוויר נוכחית

הדו"ח נערך לפני 14 שעות ו 59דקות, בשעה 20:00 UTC
רוח 3קשר מכיוון צפון/צפון-מזרח
טמפרטורת 29 צלסיוס
לחות 74%
לחץ 1011 hPa
ראות 10 קילומטר או יותר
עננים פזורים בגובה 4000רגל
מעונן בגובה 10000רגל

METAR: SPGM 112000Z 02003KT 9999 SCT040 OVC100 29/24 Q1011 RMK PP000

זמן: 05:59 (10:59 UTC)

תחזית

הדו"ח נערך לפני 17 שעות ו 49דקות, בשעה 17:10 UTC
תחזית בתוקף מ 11 ב 18 UTC עד 12 ב 18 UTC
רוח 3קשר עם כיוונים משתנים
ראות 10 קילומטר או יותר
עננים פזורים בגובה 3000רגל
עננים בינוניים בגובה 10000רגל

TAF: SPGM 111710Z 1118/1218 VRB03KT 9999 SCT030 BKN100 TX33/1119Z TN22/1211Z

תצפיות ותחזיות מזג אוויר לגבי יותר מ- 4,000 שדות תעופה ברחבי העולם. דוחות METAR ו- TAF.

התחנות הזמינות מסומנות בנקודות צהובות ואדומות על גבי המפה.

העבר את העכבר לנקודה הצבעונית על מנת לראות את שם התחנה.

לאחר מכן, לחץ כדי לראות את תוכן ואת תחזיות מזג האוויר.

כדי לשנות את המפה: לחץ על הכפתורים הירוקים עם הפלוס השחור כדי להתקרב; על הכפתור הירוק עם המקף כדי להתרחק; או בחיצים הירוקים למפות סמוכות.


METAR-TAF: